Rosa Maersk — OVST2 — position and weather

sailwx.info

Track history (hours):
 
Tides and Currents Weather Stations Pressure Air Temp Water Temp Dewpoint Dewpoint Depression Visibility Wind Speed Wind Dir Waves Ship Positions

Rosa Maersk

Last reported at 2014-Jul-30 14:33 UTC. Time now 2014-Jul-30 15:17 UTC.
Position N 37°19' E 024°10'.

Length 172 m; draft 11.8 m.

Type: Ship. MMSI: 220288000.

Date/timePositionNaut miles runAvg speedWind from/ knotsBaromVisibWave heightAir tempDewpointWater temp
2014-Jul-30 14:33N 37°19' E 024°10'2512.5
2014-Jul-30 12:33N 37°38' E 024°29'13012.5
2014-Jul-30 02:08N 39°36' E 025°37'812.3
2014-Jul-30 01:31N 39°44' E 025°41'2712.2
2014-Jul-29 23:18N 40°01' E 026°07'2812.6
2014-Jul-29 21:05N 40°19' E 026°36'812.4
2014-Jul-29 20:25N 40°25' E 026°43'  
2014-Jul-27 05:30N 43°26' E 034°40'5512.7
2014-Jul-27 01:09N 43°51' E 035°49'812.3
2014-Jul-27 00:30N 43°54' E 035°58'1312.2
2014-Jul-26 23:28N 44°00' E 036°14'1212.3
2014-Jul-26 22:28N 44°06' E 036°29'1112.4
2014-Jul-26 21:33N 44°11' E 036°43'1212.5
2014-Jul-26 20:33N 44°17' E 036°59'1313.0
2014-Jul-26 19:33N 44°22' E 037°15'33 0.7
2014-Jul-24 17:30N 44°39' E 036°36'  
Track history (hours):
 
Tides and Currents Weather Stations Pressure Air Temp Water Temp Dewpoint Dewpoint Depression Visibility Wind Speed Wind Dir Waves Ship Positions

Rosa Maersk

Last reported at 2014-Jul-30 14:33 UTC. Time now 2014-Jul-30 15:17 UTC.
Position N 37°19' E 024°10'.

Length 172 m; draft 11.8 m.

Type: Ship. MMSI: 220288000.

Date/timePositionNaut miles runAvg speedWind from/ knotsBaromVisibWave heightAir tempDewpointWater temp
2014-Jul-30 14:33N 37°19' E 024°10'2512.5
2014-Jul-30 12:33N 37°38' E 024°29'13012.5
2014-Jul-30 02:08N 39°36' E 025°37'812.3
2014-Jul-30 01:31N 39°44' E 025°41'2712.2
2014-Jul-29 23:18N 40°01' E 026°07'2812.6
2014-Jul-29 21:05N 40°19' E 026°36'812.4
2014-Jul-29 20:25N 40°25' E 026°43'  
2014-Jul-27 05:30N 43°26' E 034°40'5512.7
2014-Jul-27 01:09N 43°51' E 035°49'812.3
2014-Jul-27 00:30N 43°54' E 035°58'1312.2
2014-Jul-26 23:28N 44°00' E 036°14'1212.3
2014-Jul-26 22:28N 44°06' E 036°29'1112.4
2014-Jul-26 21:33N 44°11' E 036°43'1212.5
2014-Jul-26 20:33N 44°17' E 036°59'1313.0
2014-Jul-26 19:33N 44°22' E 037°15'33 0.7
2014-Jul-24 17:30N 44°39' E 036°36'  

Dump ship's entire track history